createdAt,value
2018-02-03T00:00:41.930Z,100309.52
2018-02-03T00:03:11.237Z,100310.89
2018-02-03T00:05:40.501Z,100314.03
2018-02-03T00:08:10.544Z,100315.93
2018-02-03T00:10:40.034Z,100309.37
2018-02-03T00:13:09.454Z,100306.36
2018-02-03T00:15:39.576Z,100317.36
2018-02-03T00:18:08.116Z,100311.68
2018-02-03T00:20:38.182Z,100305.69
2018-02-03T00:23:07.577Z,100303.59
2018-02-03T00:25:37.014Z,100311.52
2018-02-03T00:28:07.224Z,100306.91
2018-02-03T00:30:36.715Z,100311.38
2018-02-03T00:33:06.012Z,100315.05
2018-02-03T00:35:35.476Z,100316.02
2018-02-03T00:38:04.883Z,100316.16
2018-02-03T00:40:34.695Z,100315.80
2018-02-03T00:43:04.447Z,100317.23
2018-02-03T00:45:33.764Z,100313.38
2018-02-03T00:48:03.075Z,100316.06
2018-02-03T00:50:32.528Z,100317.94
2018-02-03T00:53:02.586Z,100316.27
2018-02-03T00:55:31.975Z,100308.02
2018-02-03T00:58:01.488Z,100307.64
2018-02-03T01:00:30.758Z,100307.73
2018-02-03T01:03:00.802Z,100293.86
2018-02-03T01:05:30.172Z,100297.50
2018-02-03T01:08:00.314Z,100299.94
2018-02-03T01:10:29.734Z,100296.66
2018-02-03T01:12:59.056Z,100293.42
2018-02-03T01:15:28.569Z,100290.20
2018-02-03T01:17:57.875Z,100299.08
2018-02-03T01:20:27.174Z,100302.69
2018-02-03T01:22:56.618Z,100301.50
2018-02-03T01:25:26.620Z,100310.23
2018-02-03T01:27:56.982Z,100309.75
2018-02-03T01:30:26.116Z,100312.44
2018-02-03T01:32:55.715Z,100316.01
2018-02-03T01:35:25.130Z,100323.94
2018-02-03T01:37:54.485Z,100321.42
2018-02-03T01:40:23.912Z,100324.69
2018-02-03T01:42:53.192Z,100326.13
2018-02-03T01:45:22.495Z,100321.45
2018-02-03T01:47:54.571Z,100325.94
2018-02-03T01:50:23.854Z,100327.25
2018-02-03T01:52:53.104Z,100333.30
2018-02-03T01:55:22.564Z,100330.17
2018-02-03T01:57:51.836Z,100328.81
2018-02-03T02:00:21.896Z,100322.19
2018-02-03T02:02:51.177Z,100328.23
2018-02-03T02:05:20.432Z,100324.19
2018-02-03T02:07:49.829Z,100332.88
2018-02-03T02:10:19.884Z,100332.74
2018-02-03T02:12:49.172Z,100332.68
2018-02-03T02:15:19.255Z,100334.04
2018-02-03T02:17:48.538Z,100343.59
2018-02-03T02:20:17.788Z,100340.08
2018-02-03T02:22:47.844Z,100338.34
2018-02-03T02:25:17.102Z,100344.40
2018-02-03T02:27:47.170Z,100337.78
2018-02-03T02:30:16.467Z,100337.78
2018-02-03T02:32:45.757Z,100338.66
2018-02-03T02:35:15.025Z,100329.98
2018-02-03T02:37:45.094Z,100336.10
2018-02-03T02:40:14.353Z,100335.66
2018-02-03T02:42:44.415Z,100340.41
2018-02-03T02:45:14.625Z,100343.45
2018-02-03T02:47:43.917Z,100339.08
2018-02-03T02:50:13.226Z,100337.34
2018-02-03T02:52:42.484Z,100335.55
2018-02-03T02:55:12.520Z,100332.97
2018-02-03T02:57:41.877Z,100331.66
2018-02-03T03:00:11.405Z,100327.28
2018-02-03T03:02:40.715Z,100332.11
2018-02-03T03:05:10.732Z,100334.28
2018-02-03T03:07:40.794Z,100333.03
2018-02-03T03:10:10.071Z,100337.34
2018-02-03T03:12:39.367Z,100333.41
2018-02-03T03:15:09.427Z,100334.97
2018-02-03T03:17:38.780Z,100336.22
2018-02-03T03:20:09.045Z,100338.34
2018-02-03T03:22:38.534Z,100338.28
2018-02-03T03:25:07.056Z,100336.57
2018-02-03T03:27:36.343Z,100338.33
2018-02-03T03:30:05.636Z,100335.27
2018-02-03T03:32:34.917Z,100337.95
2018-02-03T03:35:04.200Z,100330.97
2018-02-03T03:37:33.496Z,100331.47
2018-02-03T03:40:03.778Z,100335.41
2018-02-03T03:42:33.044Z,100333.23
2018-02-03T03:45:02.329Z,100332.41
2018-02-03T03:47:31.608Z,100328.59
2018-02-03T03:50:01.643Z,100327.36
2018-02-03T03:52:31.759Z,100329.17
2018-02-03T03:55:01.721Z,100332.36
2018-02-03T03:57:31.205Z,100327.63
2018-02-03T04:00:00.506Z,100328.11
2018-02-03T04:02:29.842Z,100326.38
2018-02-03T04:04:59.126Z,100327.24
2018-02-03T04:07:28.220Z,100325.61
2018-02-03T04:09:57.693Z,100326.48
2018-02-03T04:12:26.789Z,100326.08
2018-02-03T04:14:56.068Z,100324.36
2018-02-03T04:17:26.089Z,100320.77
2018-02-03T04:19:56.140Z,100321.55
2018-02-03T04:22:25.411Z,100316.25
2018-02-03T04:24:55.460Z,100324.05
2018-02-03T04:27:24.738Z,100319.69
2018-02-03T04:29:54.876Z,100321.92
2018-02-03T04:32:24.166Z,100317.12
2018-02-03T04:34:53.487Z,100318.39
2018-02-03T04:37:23.664Z,100317.06
2018-02-03T04:39:53.726Z,100316.20
2018-02-03T04:42:22.815Z,100310.06
2018-02-03T04:44:52.101Z,100314.38
2018-02-03T04:47:21.376Z,100313.02
2018-02-03T04:49:51.233Z,100314.76
2018-02-03T04:52:20.488Z,100307.70
2018-02-03T04:54:50.552Z,100296.76
2018-02-03T04:57:19.832Z,100299.33
2018-02-03T04:59:48.845Z,100303.62
2018-02-03T05:02:18.125Z,100293.89
2018-02-03T05:04:47.478Z,100291.64
2018-02-03T05:07:16.743Z,100291.13
2018-02-03T05:09:46.040Z,100284.89
2018-02-03T05:12:15.307Z,100290.93
2018-02-03T05:14:44.780Z,100291.80
2018-02-03T05:17:13.865Z,100297.47
2018-02-03T05:19:43.366Z,100290.05
2018-02-03T05:22:12.380Z,100289.94
2018-02-03T05:24:41.678Z,100283.30
2018-02-03T05:27:11.115Z,100286.35
2018-02-03T05:29:41.148Z,100292.42
2018-02-03T05:32:10.438Z,100293.72
2018-02-03T05:34:40.279Z,100291.98
2018-02-03T05:37:09.576Z,100290.72
2018-02-03T05:39:38.659Z,100283.75
2018-02-03T05:42:08.901Z,100283.36
2018-02-03T05:44:40.806Z,100278.56
2018-02-03T05:47:09.907Z,100278.25
2018-02-03T05:49:38.996Z,100280.14
2018-02-03T05:52:08.258Z,100279.41
2018-02-03T05:54:37.654Z,100291.02
2018-02-03T05:57:07.089Z,100285.98
2018-02-03T05:59:36.489Z,100284.86
2018-02-03T06:02:05.639Z,100280.73
2018-02-03T06:04:34.910Z,100277.46
2018-02-03T06:07:04.164Z,100271.53
2018-02-03T06:09:33.678Z,100272.97
2018-02-03T06:12:02.948Z,100270.07
2018-02-03T06:14:33.010Z,100268.52
2018-02-03T06:17:02.268Z,100270.38
2018-02-03T06:19:33.267Z,100270.94
2018-02-03T06:22:02.539Z,100268.02
2018-02-03T06:24:32.006Z,100267.77
2018-02-03T06:27:02.054Z,100267.02
2018-02-03T06:29:31.331Z,100267.14
2018-02-03T06:32:00.715Z,100272.56
2018-02-03T06:34:30.902Z,100273.94
2018-02-03T06:37:00.180Z,100270.56
2018-02-03T06:39:29.656Z,100281.92
2018-02-03T06:41:59.806Z,100278.92
2018-02-03T06:44:29.322Z,100272.83
2018-02-03T06:46:58.576Z,100282.48
2018-02-03T06:49:28.616Z,100279.87
2018-02-03T06:51:58.134Z,100278.13
2018-02-03T06:54:27.494Z,100276.38
2018-02-03T06:56:58.269Z,100277.30
2018-02-03T06:59:28.705Z,100278.99
2018-02-03T07:01:58.100Z,100279.00
2018-02-03T07:04:27.427Z,100274.63
2018-02-03T07:06:56.730Z,100276.31
2018-02-03T07:09:25.817Z,100270.14
2018-02-03T07:11:54.924Z,100273.52
2018-02-03T07:14:24.296Z,100275.19
2018-02-03T07:16:53.643Z,100279.94
2018-02-03T07:19:22.910Z,100272.88
2018-02-03T07:21:52.514Z,100271.47
2018-02-03T07:24:21.638Z,100273.64
2018-02-03T07:26:51.723Z,100275.83
2018-02-03T07:29:21.085Z,100266.64
2018-02-03T07:31:50.400Z,100273.58
2018-02-03T07:34:19.728Z,100273.56
2018-02-03T07:36:49.030Z,100277.00
2018-02-03T07:39:18.676Z,100279.56
2018-02-03T07:41:48.037Z,100278.62
2018-02-03T07:44:17.444Z,100282.42
2018-02-03T07:46:46.732Z,100270.02
2018-02-03T07:49:16.032Z,100276.88
2018-02-03T07:51:45.296Z,100271.94
2018-02-03T07:54:15.425Z,100270.52
2018-02-03T07:56:45.448Z,100268.17
2018-02-03T07:59:16.523Z,100269.73
2018-02-03T08:01:45.614Z,100273.88
2018-02-03T08:04:14.892Z,100270.20
2018-02-03T08:06:44.217Z,100272.13
2018-02-03T08:09:13.515Z,100267.05
2018-02-03T08:11:42.795Z,100270.23
2018-02-03T08:14:12.228Z,100266.47
2018-02-03T08:16:41.497Z,100263.99
2018-02-03T08:19:11.552Z,100263.66
2018-02-03T08:21:40.832Z,100264.62
2018-02-03T08:24:10.080Z,100265.98
2018-02-03T08:26:39.374Z,100261.69
2018-02-03T08:29:08.676Z,100262.12
2018-02-03T08:31:37.721Z,100258.88
2018-02-03T08:34:07.062Z,100260.72
2018-02-03T08:36:36.825Z,100257.78
2018-02-03T08:39:05.850Z,100259.67
2018-02-03T08:41:35.153Z,100256.43
2018-02-03T08:44:04.453Z,100251.69
2018-02-03T08:46:34.046Z,100250.91
2018-02-03T08:49:03.359Z,100248.45
2018-02-03T08:51:32.697Z,100252.22
2018-02-03T08:54:01.976Z,100252.56
2018-02-03T08:56:31.267Z,100244.80
2018-02-03T08:59:00.737Z,100247.81
2018-02-03T09:01:31.004Z,100248.02
2018-02-03T09:04:00.302Z,100244.50
2018-02-03T09:06:29.762Z,100246.23
2018-02-03T09:08:59.626Z,100244.67
2018-02-03T09:11:28.980Z,100253.77
2018-02-03T09:14:02.202Z,100247.73
2018-02-03T09:16:31.586Z,100242.25
2018-02-03T09:19:00.861Z,100242.17
2018-02-03T09:21:30.916Z,100240.27
2018-02-03T09:24:00.543Z,100246.47
2018-02-03T09:26:30.277Z,100240.47
2018-02-03T09:28:59.637Z,100241.85
2018-02-03T09:31:29.008Z,100234.59
2018-02-03T09:33:59.200Z,100234.66
2018-02-03T09:36:28.550Z,100244.41
2018-02-03T09:38:57.902Z,100241.08
2018-02-03T09:41:26.959Z,100245.79
2018-02-03T09:43:56.413Z,100247.78
2018-02-03T09:46:27.002Z,100244.80
2018-02-03T09:48:56.354Z,100242.88
2018-02-03T09:51:25.648Z,100241.22
2018-02-03T09:53:54.904Z,100247.00
2018-02-03T09:56:24.339Z,100238.02
2018-02-03T09:58:53.756Z,100234.37
2018-02-03T10:01:23.057Z,100227.45
2018-02-03T10:03:52.624Z,100227.98
2018-02-03T10:06:21.910Z,100222.38
2018-02-03T10:08:51.187Z,100229.75
2018-02-03T10:11:21.244Z,100224.38
2018-02-03T10:13:52.622Z,100220.78
2018-02-03T10:16:21.805Z,100221.13
2018-02-03T10:18:51.102Z,100215.91
2018-02-03T10:21:20.416Z,100210.98
2018-02-03T10:23:49.736Z,100212.19
2018-02-03T10:26:19.508Z,100216.16
2018-02-03T10:28:48.871Z,100219.71
2018-02-03T10:31:18.936Z,100221.54
2018-02-03T10:33:48.244Z,100214.80
2018-02-03T10:36:17.519Z,100219.23
2018-02-03T10:38:46.813Z,100221.30
2018-02-03T10:41:16.209Z,100216.11
2018-02-03T10:43:45.512Z,100217.63
2018-02-03T10:46:14.784Z,100215.11
2018-02-03T10:48:45.047Z,100213.06
2018-02-03T10:51:14.348Z,100214.53
2018-02-03T10:53:43.625Z,100210.83
2018-02-03T10:56:13.149Z,100211.20
2018-02-03T10:58:42.582Z,100199.66
2018-02-03T11:01:11.863Z,100199.16
2018-02-03T11:03:41.363Z,100209.51
2018-02-03T11:06:10.838Z,100205.67
2018-02-03T11:08:41.056Z,100201.90
2018-02-03T11:11:11.118Z,100199.44
2018-02-03T11:13:40.403Z,100203.59
2018-02-03T11:16:09.694Z,100192.97
2018-02-03T11:18:38.995Z,100183.69
2018-02-03T11:21:08.352Z,100185.83
2018-02-03T11:23:37.038Z,100178.47
2018-02-03T11:26:06.466Z,100180.25
2018-02-03T11:28:36.470Z,100177.13
2018-02-03T11:31:06.354Z,100180.73
2018-02-03T11:33:35.741Z,100176.96
2018-02-03T11:36:05.144Z,100184.02
2018-02-03T11:38:34.470Z,100181.08
2018-02-03T11:41:04.029Z,100174.88
2018-02-03T11:43:33.434Z,100181.66
2018-02-03T11:46:02.727Z,100178.14
2018-02-03T11:48:32.565Z,100180.67
2018-02-03T11:51:02.065Z,100179.08
2018-02-03T11:53:32.324Z,100179.11
2018-02-03T11:56:01.581Z,100175.51
2018-02-03T11:58:30.983Z,100173.33
2018-02-03T12:01:01.614Z,100176.83
2018-02-03T12:03:31.717Z,100174.28
2018-02-03T12:06:01.803Z,100164.42
2018-02-03T12:08:31.068Z,100166.83
2018-02-03T12:11:00.058Z,100166.31
2018-02-03T12:13:29.293Z,100164.02
2018-02-03T12:15:58.561Z,100165.41
2018-02-03T12:18:27.984Z,100164.34
2018-02-03T12:20:57.306Z,100164.21
2018-02-03T12:23:26.692Z,100161.38
2018-02-03T12:25:56.183Z,100159.24
2018-02-03T12:28:24.980Z,100159.05
2018-02-03T12:30:54.274Z,100153.31
2018-02-03T12:33:23.546Z,100153.65
2018-02-03T12:35:53.588Z,100151.41
2018-02-03T12:38:22.980Z,100152.75
2018-02-03T12:40:54.040Z,100148.38
2018-02-03T12:43:24.131Z,100148.28
2018-02-03T12:45:53.410Z,100142.76
2018-02-03T12:48:22.972Z,100142.54
2018-02-03T12:50:52.242Z,100144.19
2018-02-03T12:53:21.531Z,100145.69
2018-02-03T12:55:51.640Z,100142.64
2018-02-03T12:58:21.705Z,100141.91
2018-02-03T13:00:51.048Z,100140.70
2018-02-03T13:03:20.310Z,100140.59
2018-02-03T13:05:49.975Z,100134.02
2018-02-03T13:08:20.329Z,100138.34
2018-02-03T13:10:50.939Z,100134.16
2018-02-03T13:13:20.592Z,100140.73
2018-02-03T13:15:50.179Z,100138.70
2018-02-03T13:18:19.064Z,100135.58
2018-02-03T13:20:48.147Z,100134.71
2018-02-03T13:23:17.506Z,100132.36
2018-02-03T13:25:46.980Z,100124.16
2018-02-03T13:28:16.272Z,100122.97
2018-02-03T13:30:46.255Z,100126.56
2018-02-03T13:33:16.637Z,100120.48
2018-02-03T13:35:46.121Z,100118.67
2018-02-03T13:38:15.625Z,100119.10
2018-02-03T13:40:44.912Z,100115.76
2018-02-03T13:43:14.200Z,100114.81
2018-02-03T13:45:44.096Z,100112.45
2018-02-03T13:48:15.839Z,100117.30
2018-02-03T13:50:45.378Z,100111.31
2018-02-03T13:53:15.661Z,100101.93
2018-02-03T13:55:45.037Z,100103.09
2018-02-03T13:58:14.350Z,100104.75
2018-02-03T14:00:43.622Z,100101.98
2018-02-03T14:03:14.224Z,100109.48
2018-02-03T14:05:44.589Z,100108.77
2018-02-03T14:08:14.223Z,100117.16
2018-02-03T14:10:43.528Z,100115.88
2018-02-03T14:13:12.481Z,100113.59
2018-02-03T14:15:42.105Z,100120.55
2018-02-03T14:18:11.524Z,100115.98
2018-02-03T14:20:41.516Z,100126.85
2018-02-03T14:23:11.104Z,100127.63
2018-02-03T14:25:41.080Z,100121.79
2018-02-03T14:28:10.355Z,100125.28
2018-02-03T14:30:39.792Z,100119.04
2018-02-03T14:33:10.008Z,100121.50
2018-02-03T14:35:39.360Z,100122.21
2018-02-03T14:38:08.760Z,100124.67
2018-02-03T14:40:38.185Z,100123.87
2018-02-03T14:43:07.791Z,100121.14
2018-02-03T14:45:36.597Z,100125.41
2018-02-03T14:48:05.756Z,100128.94
2018-02-03T14:50:35.117Z,100121.63
2018-02-03T14:53:04.405Z,100119.48
2018-02-03T14:55:33.853Z,100125.44
2018-02-03T14:58:04.343Z,100120.42
2018-02-03T15:00:33.917Z,100120.62
2018-02-03T15:03:03.281Z,100114.08
2018-02-03T15:05:33.532Z,100116.63
2018-02-03T15:08:03.647Z,100108.74
2018-02-03T15:10:33.044Z,100114.70
2018-02-03T15:13:03.086Z,100106.97
2018-02-03T15:15:32.432Z,100108.45
2018-02-03T15:18:01.820Z,100113.38
2018-02-03T15:20:31.720Z,100108.23
2018-02-03T15:23:00.968Z,100105.41
2018-02-03T15:25:31.095Z,100107.25
2018-02-03T15:28:01.123Z,100107.70
2018-02-03T15:30:31.510Z,100112.86
2018-02-03T15:33:00.995Z,100110.17
2018-02-03T15:35:30.762Z,100109.62
2018-02-03T15:38:01.037Z,100116.99
2018-02-03T15:40:30.476Z,100111.30
2018-02-03T15:43:00.520Z,100113.91
2018-02-03T15:45:29.799Z,100112.11
2018-02-03T15:48:00.429Z,100116.27
2018-02-03T15:50:30.039Z,100112.42
2018-02-03T15:53:00.064Z,100112.48
2018-02-03T15:55:30.156Z,100110.77
2018-02-03T15:57:59.562Z,100116.09
2018-02-03T16:00:29.620Z,100115.72
2018-02-03T16:02:58.830Z,100120.28
2018-02-03T16:05:28.266Z,100121.77
2018-02-03T16:07:57.637Z,100118.82
2018-02-03T16:10:27.107Z,100120.08
2018-02-03T16:12:57.155Z,100121.60
2018-02-03T16:15:26.664Z,100126.08
2018-02-03T16:17:56.264Z,100123.47
2018-02-03T16:20:25.654Z,100128.02
2018-02-03T16:22:56.111Z,100125.78
2018-02-03T16:25:25.368Z,100133.41
2018-02-03T16:27:55.673Z,100131.78
2018-02-03T16:30:25.298Z,100134.13
2018-02-03T16:32:55.494Z,100139.61
2018-02-03T16:35:25.292Z,100142.56
2018-02-03T16:37:54.576Z,100139.20
2018-02-03T16:40:23.843Z,100137.05
2018-02-03T16:42:53.906Z,100141.95
2018-02-03T16:45:23.178Z,100142.93
2018-02-03T16:47:52.460Z,100140.67
2018-02-03T16:50:21.770Z,100147.45
2018-02-03T16:52:51.125Z,100140.23
2018-02-03T16:55:20.902Z,100147.96
2018-02-03T16:57:50.169Z,100150.31
2018-02-03T17:00:19.476Z,100147.89
2018-02-03T17:02:48.914Z,100151.34
2018-02-03T17:05:18.242Z,100150.73
2018-02-03T17:07:47.516Z,100155.55
2018-02-03T17:10:17.032Z,100157.53
2018-02-03T17:12:47.326Z,100163.08
2018-02-03T17:15:16.793Z,100158.67
2018-02-03T17:17:46.364Z,100167.86
2018-02-03T17:20:15.818Z,100167.36
2018-02-03T17:22:45.860Z,100167.72
2018-02-03T17:25:15.232Z,100172.90
2018-02-03T17:27:44.494Z,100174.14
2018-02-03T17:30:14.064Z,100175.33
2018-02-03T17:32:44.421Z,100182.68
2018-02-03T17:35:14.236Z,100182.61
2018-02-03T17:37:49.170Z,100183.06
2018-02-03T17:40:18.446Z,100188.81
2018-02-03T17:42:48.478Z,100191.49
2018-02-03T17:45:23.224Z,100198.36
2018-02-03T17:47:53.164Z,100200.05
2018-02-03T17:50:22.248Z,100200.34
2018-02-03T17:52:51.597Z,100197.57
2018-02-03T17:55:27.102Z,100203.52
2018-02-03T17:57:56.588Z,100205.14
2018-02-03T18:00:26.066Z,100212.88
2018-02-03T18:02:56.430Z,100209.22
2018-02-03T18:05:25.772Z,100213.95
2018-02-03T18:07:55.225Z,100209.88
2018-02-03T18:10:24.595Z,100213.75
2018-02-03T18:12:54.673Z,100209.36
2018-02-03T18:15:23.499Z,100216.30
2018-02-03T18:17:53.863Z,100221.02
2018-02-03T18:20:23.126Z,100215.26
2018-02-03T18:22:53.162Z,100222.19
2018-02-03T18:25:22.742Z,100215.11
2018-02-03T18:27:52.590Z,100225.49
2018-02-03T18:30:22.423Z,100216.64
2018-02-03T18:32:51.871Z,100227.52
2018-02-03T18:35:21.940Z,100234.67
2018-02-03T18:37:51.340Z,100234.38
2018-02-03T18:40:20.825Z,100231.83
2018-02-03T18:42:50.452Z,100231.45
2018-02-03T18:58:55.547Z,100241.11
2018-02-03T19:01:25.087Z,100242.26
2018-02-03T19:03:54.692Z,100234.52
2018-02-03T19:06:24.200Z,100242.55
2018-02-03T19:08:53.749Z,100239.17
2018-02-03T19:11:24.007Z,100242.34
2018-02-03T19:13:53.534Z,100243.36
2018-02-03T19:16:22.816Z,100241.36
2018-02-03T19:18:52.340Z,100241.88
2018-02-03T19:21:21.726Z,100240.13
2018-02-03T19:23:51.501Z,100241.88
2018-02-03T19:26:20.913Z,100241.89
2018-02-03T19:28:51.529Z,100246.31
2018-02-03T19:31:21.651Z,100253.76
2018-02-03T19:33:51.261Z,100251.08
2018-02-03T19:36:21.420Z,100249.70
2018-02-03T19:38:50.871Z,100261.92
2018-02-03T19:41:20.175Z,100258.80
2018-02-03T19:43:50.351Z,100262.72
2018-02-03T19:46:19.715Z,100273.09
2018-02-03T19:48:49.974Z,100269.54
2018-02-03T19:51:20.292Z,100273.02
2018-02-03T19:53:49.762Z,100277.77
2018-02-03T19:56:20.089Z,100270.75
2018-02-03T19:58:50.010Z,100276.45
2018-02-03T20:01:20.090Z,100280.88
2018-02-03T20:03:49.694Z,100273.48
2018-02-03T20:06:19.133Z,100279.16
2018-02-03T20:08:48.722Z,100280.47
2018-02-03T20:11:18.546Z,100277.47
2018-02-03T20:13:48.884Z,100285.72
2018-02-03T20:16:18.451Z,100285.29
2018-02-03T20:18:47.754Z,100289.23
2018-02-03T20:21:16.854Z,100284.91
2018-02-03T20:23:46.533Z,100277.63
2018-02-03T20:26:16.885Z,100284.16
2018-02-03T20:28:46.868Z,100293.01
2018-02-03T20:31:17.051Z,100293.08
2018-02-03T20:33:46.478Z,100293.12
2018-02-03T20:36:17.703Z,100294.44
2018-02-03T20:38:47.628Z,100295.77
2018-02-03T20:41:17.087Z,100299.31
2018-02-03T20:43:47.328Z,100301.07
2018-02-03T20:46:16.618Z,100301.02
2018-02-03T20:48:45.928Z,100302.33
2018-02-03T20:51:15.541Z,100315.01
2018-02-03T20:53:44.953Z,100309.76
2018-02-03T20:56:14.075Z,100308.02
2018-02-03T20:58:44.471Z,100314.56
2018-02-03T21:01:13.817Z,100316.31
2018-02-03T21:03:43.933Z,100320.70
2018-02-03T21:06:13.358Z,100325.63
2018-02-03T21:08:42.799Z,100327.34
2018-02-03T21:11:13.227Z,100332.27
2018-02-03T21:13:43.339Z,100334.09
2018-02-03T21:16:12.806Z,100338.91
2018-02-03T21:18:43.005Z,100339.89
2018-02-03T21:21:12.409Z,100345.61
2018-02-03T21:23:42.840Z,100345.23
2018-02-03T21:26:13.002Z,100351.42
2018-02-03T21:28:42.931Z,100357.09
2018-02-03T21:31:12.419Z,100350.98
2018-02-03T21:33:41.845Z,100358.05
2018-02-03T21:36:10.953Z,100359.36
2018-02-03T21:38:40.235Z,100362.44
2018-02-03T21:41:09.684Z,100373.41
2018-02-03T21:43:39.823Z,100370.78
2018-02-03T21:46:09.912Z,100373.91
2018-02-03T21:48:39.279Z,100373.05
2018-02-03T21:51:08.555Z,100380.09
2018-02-03T21:53:37.837Z,100383.60
2018-02-03T21:56:07.901Z,100388.91
2018-02-03T21:58:37.165Z,100378.48
2018-02-03T22:01:06.685Z,100387.25
2018-02-03T22:03:35.951Z,100393.48
2018-02-03T22:06:06.073Z,100397.05
2018-02-03T22:08:36.180Z,100397.92
2018-02-03T22:11:05.602Z,100407.19
2018-02-03T22:13:35.754Z,100404.12
2018-02-03T22:16:05.029Z,100407.19
2018-02-03T22:18:35.068Z,100414.62
2018-02-03T22:21:04.166Z,100417.67
2018-02-03T22:23:34.024Z,100418.93
2018-02-03T22:26:03.430Z,100423.72
2018-02-03T22:28:33.139Z,100425.80
2018-02-03T22:31:03.585Z,100426.21
2018-02-03T22:33:33.915Z,100429.23
2018-02-03T22:36:04.175Z,100433.60
2018-02-03T22:38:33.953Z,100427.53
2018-02-03T22:41:04.211Z,100435.86
2018-02-03T22:43:33.554Z,100442.47
2018-02-03T22:46:03.426Z,100443.33
2018-02-03T22:48:32.930Z,100438.42
2018-02-03T22:51:02.410Z,100438.53
2018-02-03T22:53:32.803Z,100438.55
2018-02-03T22:56:03.394Z,100440.77
2018-02-03T22:58:38.938Z,100446.47
2018-02-03T23:01:16.998Z,100446.41
2018-02-03T23:03:47.219Z,100456.08
2018-02-03T23:06:17.623Z,100461.28
2018-02-03T23:08:46.926Z,100463.47
2018-02-03T23:11:16.345Z,100461.27
2018-02-03T23:13:46.725Z,100462.58
2018-02-03T23:16:16.004Z,100463.84
2018-02-03T23:18:46.223Z,100468.58
2018-02-03T23:21:17.089Z,100468.88
2018-02-03T23:23:46.571Z,100471.94
2018-02-03T23:26:16.470Z,100473.72
2018-02-03T23:28:46.526Z,100477.19
2018-02-03T23:31:16.324Z,100476.70
2018-02-03T23:33:46.666Z,100475.77
2018-02-03T23:36:16.204Z,100485.38
2018-02-03T23:38:45.513Z,100487.14
2018-02-03T23:41:14.949Z,100485.43
2018-02-03T23:43:45.721Z,100494.14
2018-02-03T23:46:15.093Z,100488.45
2018-02-03T23:48:45.155Z,100494.14
2018-02-03T23:51:14.537Z,100497.70
2018-02-03T23:53:44.075Z,100494.63
2018-02-03T23:56:13.604Z,100502.56
2018-02-03T23:58:44.511Z,100503.43
